Time;durP1;ratioP1;P1;durP2;ratioP2;P2;SDS_P1;SDS_P2;PMS_P1;PMS_P2;Temp;Humidity;BMP_temperature;BMP_pressure;BME280_temperature;BME280_humidity;BME280_pressure;Samples;Min_cycle;Max_cycle;Signal;HPM_P1;HPM_P2
2023/12/11 00:02:01;;;;;;;40.23;16.13;;;;;;;3.91;84.59;97039.72;4907697;29;20677;-72
2023/12/11 00:04:29;;;;;;;53.50;18.20;;;;;;;3.85;84.16;97032.97;4892488;29;20576;-71
2023/12/11 00:06:56;;;;;;;42.90;16.70;;;;;;;3.66;84.70;97018.00;4890990;29;20199;-71
2023/12/11 00:09:23;;;;;;;43.13;17.00;;;;;;;3.54;85.13;97043.84;4892041;29;20204;-70
2023/12/11 00:11:50;;;;;;;39.53;16.20;;;;;;;3.52;85.56;97022.53;4890785;29;20206;-74
2023/12/11 00:14:17;;;;;;;44.27;16.13;;;;;;;3.49;85.89;97032.81;4891703;29;20208;-74
2023/12/11 00:16:46;;;;;;;41.07;16.83;;;;;;;3.48;85.99;97042.25;4890937;29;20274;-71
2023/12/11 00:19:14;;;;;;;41.33;16.33;;;;;;;3.52;86.18;97049.00;4891165;29;20733;-70
2023/12/11 00:21:41;;;;;;;39.23;16.60;;;;;;;3.53;85.83;97055.78;4891283;29;20296;-73
2023/12/11 00:24:09;;;;;;;43.10;17.90;;;;;;;3.13;86.20;96998.53;4890468;29;20231;-72
2023/12/11 00:26:36;;;;;;;40.77;15.87;;;;;;;3.52;86.63;97059.22;4891021;29;20283;-73
2023/12/11 00:29:04;;;;;;;49.63;19.17;;;;;;;3.45;86.46;97047.41;4893876;29;20255;-72
2023/12/11 00:31:31;;;;;;;40.93;16.67;;;;;;;3.60;85.98;97077.00;4913650;29;20238;-70
2023/12/11 00:33:58;;;;;;;42.03;17.13;;;;;;;3.40;86.04;97048.38;4913239;29;20261;-70
2023/12/11 00:36:25;;;;;;;46.77;18.17;;;;;;;3.72;85.96;97081.91;4913879;29;20354;-70
2023/12/11 00:38:53;;;;;;;45.13;17.87;;;;;;;3.70;85.01;97083.66;4913437;29;20200;-71
2023/12/11 00:41:20;;;;;;;47.10;18.33;;;;;;;3.77;85.41;97088.63;4911821;29;20213;-72
2023/12/11 00:43:47;;;;;;;39.93;16.33;;;;;;;3.82;84.92;97083.41;4913751;29;20234;-70
2023/12/11 00:46:15;;;;;;;47.17;18.33;;;;;;;3.78;85.24;97086.91;4912741;29;20305;-70
2023/12/11 00:48:42;;;;;;;45.57;17.87;;;;;;;3.65;85.61;97076.03;4913659;29;20207;-74
2023/12/11 00:51:16;;;;;;;38.03;15.13;;;;;;;3.80;85.18;97092.84;4912822;29;20214;-71
2023/12/11 00:53:47;;;;;;;47.97;18.77;;;;;;;3.88;85.04;97083.28;4913190;29;20241;-74
2023/12/11 00:56:15;;;;;;;46.03;18.33;;;;;;;3.88;85.09;97084.16;4913538;29;20199;-73
2023/12/11 00:58:42;;;;;;;47.97;17.13;;;;;;;3.63;85.23;97082.91;4912678;29;20199;-73
2023/12/11 01:01:09;;;;;;;42.53;16.47;;;;;;;3.83;85.15;97093.63;4913345;29;20226;-73
2023/12/11 01:03:38;;;;;;;46.33;17.77;;;;;;;3.86;85.03;97095.28;4912007;29;20305;-71
2023/12/11 01:06:06;;;;;;;45.90;17.73;;;;;;;3.78;85.18;97080.06;4913655;29;20199;-75
2023/12/11 01:08:38;;;;;;;35.53;15.00;;;;;;;3.83;85.29;97080.81;4912395;29;20191;-73
2023/12/11 01:11:06;;;;;;;42.37;17.13;;;;;;;3.87;85.57;97074.78;4912988;29;20194;-74
2023/12/11 01:13:33;;;;;;;38.47;15.70;;;;;;;3.86;84.63;97052.59;4912873;29;20233;-73
2023/12/11 01:16:00;;;;;;;42.37;15.87;;;;;;;3.65;85.37;97023.97;4912367;29;20212;-74
2023/12/11 01:18:28;;;;;;;39.13;16.50;;;;;;;3.92;85.38;97057.59;4913057;29;20670;-74
2023/12/11 01:20:55;;;;;;;43.60;17.10;;;;;;;4.03;84.78;97055.69;4911909;29;20309;-74
2023/12/11 01:23:22;;;;;;;43.77;17.83;;;;;;;3.99;84.97;97056.63;4913078;29;20287;-74
2023/12/11 01:25:50;;;;;;;44.77;18.03;;;;;;;3.75;85.78;97040.88;4912042;29;20247;-74
2023/12/11 01:28:18;;;;;;;43.57;16.97;;;;;;;3.54;86.62;97033.59;4912680;29;20216;-73
2023/12/11 01:30:46;;;;;;;40.93;16.73;;;;;;;3.54;86.74;97041.28;4911174;29;20265;-75
2023/12/11 01:33:13;;;;;;;42.90;16.00;;;;;;;3.53;87.04;97019.09;4912439;29;20249;-75
2023/12/11 01:35:41;;;;;;;48.33;17.43;;;;;;;3.42;87.20;97009.06;4911194;29;20290;-73
2023/12/11 01:38:08;;;;;;;49.77;18.60;;;;;;;3.53;87.10;97022.50;4911616;29;20245;-75
2023/12/11 01:40:35;;;;;;;52.77;18.00;;;;;;;3.63;86.56;97005.25;4912715;29;20226;-72
2023/12/11 01:43:16;;;;;;;42.03;16.40;;;;;;;3.53;86.91;97013.97;4911969;29;20708;-73
2023/12/11 01:45:53;;;;;;;43.03;16.93;;;;;;;3.57;86.92;97015.59;4912347;29;20278;-74
2023/12/11 01:48:20;;;;;;;40.70;15.70;;;;;;;3.67;86.87;97007.72;4895060;29;20201;-74
2023/12/11 01:50:47;;;;;;;46.10;16.40;;;;;;;3.63;85.91;96997.56;4911805;29;20195;-73
2023/12/11 01:53:15;;;;;;;42.57;15.67;;;;;;;3.60;86.16;96970.34;4912502;29;20232;-70
2023/12/11 01:55:42;;;;;;;42.43;16.00;;;;;;;3.74;86.05;97013.56;4911624;29;20206;-71
2023/12/11 01:58:12;;;;;;;50.80;17.53;;;;;;;3.72;86.09;97010.19;4912630;29;20247;-71
2023/12/11 02:00:40;;;;;;;45.93;17.23;;;;;;;3.59;86.66;96994.22;4911439;29;20266;-73
2023/12/11 02:03:09;;;;;;;43.17;16.60;;;;;;;3.72;86.88;96999.97;4911871;29;20242;-72
2023/12/11 02:05:37;;;;;;;47.80;17.13;;;;;;;3.77;85.58;97009.22;4912165;29;20202;-75
2023/12/11 02:08:04;;;;;;;43.47;16.03;;;;;;;3.75;85.83;97013.53;4910063;29;20212;-75
2023/12/11 02:10:31;;;;;;;49.10;17.53;;;;;;;3.59;85.66;96994.22;4912364;29;20198;-71
2023/12/11 02:12:58;;;;;;;49.10;18.87;;;;;;;3.62;85.63;97013.81;4911049;29;20291;-73
2023/12/11 02:15:39;;;;;;;52.63;18.17;;;;;;;3.57;86.32;97002.81;4912231;29;20296;-74
2023/12/11 02:18:08;;;;;;;44.30;17.60;;;;;;;3.37;86.96;96999.78;4911750;29;20572;-73
2023/12/11 02:20:37;;;;;;;42.20;16.40;;;;;;;3.22;87.54;96998.34;4894830;29;20325;-71
2023/12/11 02:23:08;;;;;;;44.07;16.50;;;;;;;3.25;88.66;97009.38;4910340;29;20198;-74
2023/12/11 02:25:37;;;;;;;44.60;17.43;;;;;;;3.38;87.24;97019.41;4911010;29;20594;-73
2023/12/11 02:28:04;;;;;;;46.87;18.00;;;;;;;3.30;87.30;97017.81;4911907;29;20301;-73
2023/12/11 02:30:35;;;;;;;42.00;16.70;;;;;;;3.13;87.14;96968.63;4910772;29;20214;-76
2023/12/11 02:33:03;;;;;;;48.90;16.97;;;;;;;3.45;87.15;97024.38;4911583;29;20240;-73
2023/12/11 02:35:31;;;;;;;38.93;16.37;;;;;;;3.44;86.97;97019.28;4911245;29;20200;-74
2023/12/11 02:37:58;;;;;;;51.63;18.80;;;;;;;3.59;86.77;97029.22;4911153;29;20202;-73
2023/12/11 02:40:25;;;;;;;40.13;17.47;;;;;;;3.61;86.25;97015.53;4911592;29;20272;-75
2023/12/11 02:42:52;;;;;;;56.17;23.53;;;;;;;3.50;87.09;97009.78;4910657;29;20220;-72
2023/12/11 02:45:20;;;;;;;46.10;19.60;;;;;;;3.34;87.17;96998.13;4894621;29;20206;-74
2023/12/11 02:47:47;;;;;;;49.80;18.17;;;;;;;3.49;87.27;97020.88;4910555;29;20199;-71
2023/12/11 02:50:14;;;;;;;51.87;18.60;;;;;;;3.46;87.37;97008.16;4911099;29;20254;-74
2023/12/11 02:52:41;;;;;;;50.60;17.00;;;;;;;3.04;87.22;96986.72;4910758;29;20666;-73
2023/12/11 02:55:08;;;;;;;52.37;19.43;;;;;;;3.19;88.19;97006.09;4910988;29;20269;-74
2023/12/11 02:57:35;;;;;;;51.50;17.17;;;;;;;3.02;88.22;97001.25;4910850;29;20293;-74
2023/12/11 03:00:03;;;;;;;49.77;17.73;;;;;;;3.07;88.69;96999.44;4910520;29;20237;-74
2023/12/11 03:02:30;;;;;;;48.57;18.00;;;;;;;3.07;88.08;96971.31;4911047;29;20257;-73
2023/12/11 03:04:58;;;;;;;59.27;20.30;;;;;;;3.32;87.60;97009.28;4909926;29;20231;-74
2023/12/11 03:07:25;;;;;;;55.73;18.80;;;;;;;3.08;88.24;96990.91;4894565;29;20207;-71
2023/12/11 03:09:53;;;;;;;54.53;18.27;;;;;;;2.65;88.86;96933.72;4909986;29;20206;-72
2023/12/11 03:12:20;;;;;;;52.40;19.13;;;;;;;3.13;88.80;96994.22;4909429;29;20210;-72
2023/12/11 03:14:47;;;;;;;48.83;18.17;;;;;;;3.29;88.60;96998.22;4893690;29;20210;-71
2023/12/11 03:17:14;;;;;;;57.13;18.87;;;;;;;3.37;88.09;97000.63;4910325;29;20217;-73
2023/12/11 03:19:41;;;;;;;54.27;20.53;;;;;;;3.27;88.43;96989.72;4910932;29;20198;-72
2023/12/11 03:22:08;;;;;;;51.30;19.87;;;;;;;3.34;87.97;96981.94;4910053;29;20674;-71
2023/12/11 03:24:35;;;;;;;50.73;19.43;;;;;;;3.40;87.80;96994.63;4911050;29;20612;-72
2023/12/11 03:27:03;;;;;;;51.53;18.77;;;;;;;3.21;87.82;96946.31;4910098;29;20210;-74
2023/12/11 03:29:30;;;;;;;57.23;19.97;;;;;;;3.37;87.68;96995.50;4910575;29;20574;-72
2023/12/11 03:31:57;;;;;;;59.47;20.00;;;;;;;3.52;87.74;97002.06;4910401;29;20214;-72
2023/12/11 03:34:24;;;;;;;56.90;20.97;;;;;;;3.57;87.51;97013.91;4910201;29;20219;-70
2023/12/11 03:36:51;;;;;;;54.37;20.00;;;;;;;3.57;87.04;97015.59;4909571;29;20212;-71
2023/12/11 03:39:19;;;;;;;58.47;20.90;;;;;;;3.11;87.29;96952.47;4910041;29;20189;-72
2023/12/11 03:41:47;;;;;;;57.70;20.93;;;;;;;3.54;87.00;97020.81;4910588;29;20222;-72
2023/12/11 03:44:14;;;;;;;47.63;17.63;;;;;;;3.10;87.28;96988.31;4910277;29;20207;-74
2023/12/11 03:46:41;;;;;;;55.30;19.47;;;;;;;3.51;87.07;97023.41;4910780;29;20195;-73
2023/12/11 03:49:08;;;;;;;49.90;19.73;;;;;;;3.36;86.83;97004.03;4910213;29;20648;-71
2023/12/11 03:51:35;;;;;;;54.00;18.93;;;;;;;3.42;87.54;97029.53;4910713;29;20297;-75
2023/12/11 03:54:03;;;;;;;58.43;19.30;;;;;;;2.83;88.07;96974.28;4910818;29;20285;-74
2023/12/11 03:56:30;;;;;;;65.87;19.50;;;;;;;2.86;89.12;97025.41;4909797;29;20210;-74
2023/12/11 03:58:57;;;;;;;55.93;19.50;;;;;;;2.74;89.85;97035.78;4910810;29;20242;-72
2023/12/11 04:01:24;;;;;;;57.73;20.33;;;;;;;2.84;89.64;97042.47;4892649;29;20261;-74
2023/12/11 04:03:51;;;;;;;59.33;18.70;;;;;;;2.85;89.70;97036.47;4914721;29;20190;-74
2023/12/11 04:06:18;;;;;;;48.60;19.07;;;;;;;3.00;88.98;97027.72;4914031;29;20206;-75
2023/12/11 04:08:45;;;;;;;58.47;21.23;;;;;;;2.72;89.53;96990.69;4914696;29;20203;-74
2023/12/11 04:11:13;;;;;;;53.87;18.53;;;;;;;2.78;89.35;97013.59;4914639;29;20241;-74
2023/12/11 04:13:40;;;;;;;52.57;19.07;;;;;;;3.04;88.85;97029.34;4913912;29;20694;-74
2023/12/11 04:16:07;;;;;;;55.97;20.03;;;;;;;3.07;88.80;97037.81;4914634;29;20217;-74
2023/12/11 04:18:36;;;;;;;64.33;22.07;;;;;;;3.05;88.81;97047.22;4913299;29;20380;-74
2023/12/11 04:21:03;;;;;;;70.77;22.00;;;;;;;3.07;88.93;97045.50;4914205;29;20237;-74
2023/12/11 04:23:30;;;;;;;57.20;20.40;;;;;;;3.12;88.72;97046.28;4914925;29;20203;-75
2023/12/11 04:25:59;;;;;;;72.97;23.43;;;;;;;3.29;88.24;97046.00;4914896;29;20219;-74
2023/12/11 04:28:26;;;;;;;53.73;19.10;;;;;;;3.21;88.25;97052.97;4898092;29;20274;-76
2023/12/11 04:30:54;;;;;;;55.00;21.33;;;;;;;3.28;87.84;97050.25;4913692;29;20218;-74
2023/12/11 04:33:21;;;;;;;51.57;20.47;;;;;;;2.84;87.96;96993.91;4914498;29;20649;-76
2023/12/11 04:35:49;;;;;;;62.70;22.37;;;;;;;3.02;88.82;97052.41;4913420;29;20641;-75
2023/12/11 04:38:16;;;;;;;62.07;20.07;;;;;;;3.18;88.57;97056.41;4914211;29;20198;-75
2023/12/11 04:40:43;;;;;;;59.43;20.93;;;;;;;3.13;88.39;97024.09;4895838;29;20234;-75
2023/12/11 04:43:10;;;;;;;60.53;21.43;;;;;;;3.12;88.27;97040.31;4914213;29;20229;-75
2023/12/11 04:45:37;;;;;;;58.23;22.03;;;;;;;3.21;88.34;97035.88;4913319;29;20212;-76
2023/12/11 04:48:05;;;;;;;77.70;25.87;;;;;;;3.27;87.97;97050.28;4913535;29;20258;-74
2023/12/11 04:50:32;;;;;;;56.63;21.67;;;;;;;3.20;88.24;97064.91;4897175;29;20205;-75
2023/12/11 04:52:59;;;;;;;63.73;22.20;;;;;;;3.19;88.42;97068.31;4912853;29;20197;-76
2023/12/11 04:55:27;;;;;;;65.70;23.70;;;;;;;2.83;88.31;97009.25;4914259;29;20190;-74
2023/12/11 04:57:54;;;;;;;68.27;23.00;;;;;;;3.12;88.05;97066.75;4912313;29;20297;-75
2023/12/11 05:00:21;;;;;;;68.93;23.13;;;;;;;3.14;87.78;97072.69;4913490;29;20232;-73
2023/12/11 05:02:48;;;;;;;63.80;22.17;;;;;;;3.19;88.44;97078.53;4912530;29;20313;-75
2023/12/11 05:05:16;;;;;;;68.43;20.90;;;;;;;3.20;88.34;97081.97;4913252;29;20197;-75
2023/12/11 05:07:43;;;;;;;49.03;19.10;;;;;;;3.22;88.24;97080.22;4896657;29;20963;-76
2023/12/11 05:10:10;;;;;;;62.00;18.80;;;;;;;3.28;88.06;97064.75;4913021;29;20206;-77
2023/12/11 05:12:38;;;;;;;54.17;20.40;;;;;;;3.38;88.02;97089.31;4913407;29;20209;-75
2023/12/11 05:15:05;;;;;;;64.17;23.33;;;;;;;3.25;87.97;97080.19;4912412;29;20221;-73
2023/12/11 05:17:32;;;;;;;61.97;20.97;;;;;;;3.18;88.15;97091.38;4913230;29;20230;-74
2023/12/11 05:20:00;;;;;;;61.37;21.53;;;;;;;2.84;88.53;97056.97;4912578;29;20663;-76
2023/12/11 05:22:31;;;;;;;59.37;21.97;;;;;;;2.96;88.97;97098.56;4912804;29;20209;-75
2023/12/11 05:24:58;;;;;;;51.97;19.03;;;;;;;2.85;89.47;97095.28;4913329;29;20745;-73
2023/12/11 05:27:25;;;;;;;41.73;17.00;;;;;;;2.96;89.59;97108.78;4912737;29;20206;-75
2023/12/11 05:29:52;;;;;;;47.83;14.83;;;;;;;3.04;89.25;97113.78;4913404;29;20194;-73
2023/12/11 05:32:19;;;;;;;40.80;14.60;;;;;;;2.95;89.25;97101.97;4912071;29;20586;-74
2023/12/11 05:34:46;;;;;;;42.17;15.90;;;;;;;2.99;89.45;97111.28;4913329;29;20203;-75
2023/12/11 05:37:13;;;;;;;41.70;15.37;;;;;;;2.88;89.13;97079.94;4911952;29;20210;-74
2023/12/11 05:39:41;;;;;;;56.83;19.13;;;;;;;2.96;89.34;97093.44;4912819;29;20206;-75
2023/12/11 05:42:23;;;;;;;57.30;18.77;;;;;;;2.78;89.98;97092.88;4912237;29;20241;-74
2023/12/11 05:44:50;;;;;;;48.60;18.40;;;;;;;2.51;90.55;97073.66;4911879;29;20631;-74
2023/12/11 05:47:17;;;;;;;47.77;17.07;;;;;;;2.26;91.65;97085.06;4912866;29;20209;-76
2023/12/11 05:49:44;;;;;;;50.17;16.30;;;;;;;2.03;92.89;97094.69;4892617;29;20276;-74
2023/12/11 05:52:11;;;;;;;45.73;15.70;;;;;;;1.61;94.73;97071.34;4892557;29;20206;-74
2023/12/11 05:54:39;;;;;;;49.43;16.67;;;;;;;1.71;95.13;97087.38;4893050;29;20635;-74
2023/12/11 05:57:07;;;;;;;61.13;20.43;;;;;;;1.67;95.40;97081.47;4893398;29;20215;-73
2023/12/11 05:59:34;;;;;;;54.37;18.17;;;;;;;2.00;95.38;97094.75;4893279;29;20207;-75
2023/12/11 06:02:01;;;;;;;58.07;18.43;;;;;;;1.79;93.77;97069.47;4892466;29;20242;-73
2023/12/11 06:04:29;;;;;;;52.40;17.23;;;;;;;2.07;94.05;97086.13;4907971;29;20207;-74
2023/12/11 06:06:56;;;;;;;67.37;18.97;;;;;;;1.78;94.16;97070.31;4892544;29;20211;-74
2023/12/11 06:09:23;;;;;;;52.50;17.03;;;;;;;1.83;94.78;97092.38;4892063;29;20210;-74
2023/12/11 06:11:50;;;;;;;76.23;18.50;;;;;;;1.72;95.70;97085.69;4892307;29;20203;-74
2023/12/11 06:14:17;;;;;;;56.53;20.03;;;;;;;1.79;96.18;97089.88;4891653;29;21108;-75
2023/12/11 06:16:45;;;;;;;54.37;18.10;;;;;;;1.81;94.77;97088.16;4892774;29;20662;-72
2023/12/11 06:19:12;;;;;;;93.30;19.20;;;;;;;2.01;95.19;97096.44;4892432;29;20235;-76
2023/12/11 06:21:40;;;;;;;58.73;19.70;;;;;;;2.19;94.25;97101.31;4893206;29;20271;-75
2023/12/11 06:24:08;;;;;;;74.00;23.13;;;;;;;2.32;93.68;97098.59;4891302;29;20200;-75
2023/12/11 06:26:35;;;;;;;71.97;23.30;;;;;;;2.59;92.34;97106.75;4892813;29;20651;-75
2023/12/11 06:29:02;;;;;;;63.40;19.63;;;;;;;2.09;93.58;97115.06;4891774;29;20198;-73
2023/12/11 06:31:30;;;;;;;65.97;19.93;;;;;;;1.79;94.97;97092.44;4892846;29;20642;-68
2023/12/11 06:33:57;;;;;;;49.37;17.17;;;;;;;1.93;94.04;97088.00;4891876;29;20198;-72
2023/12/11 06:36:27;;;;;;;67.80;20.03;;;;;;;1.69;94.48;97052.56;4892480;29;20540;-73
2023/12/11 06:38:54;;;;;;;71.93;17.97;;;;;;;1.88;94.66;97094.88;4892768;29;20200;-75
2023/12/11 06:41:21;;;;;;;92.80;19.50;;;;;;;2.03;94.73;97102.34;4891889;29;20223;-73
2023/12/11 06:43:52;;;;;;;58.83;21.17;;;;;;;2.21;94.37;97082.56;4892920;29;20274;-74
2023/12/11 06:46:20;;;;;;;63.13;19.93;;;;;;;2.49;93.89;97098.38;4892033;29;20203;-74
2023/12/11 06:48:47;;;;;;;66.00;21.23;;;;;;;2.71;92.22;97094.66;4909333;29;20238;-74
2023/12/11 06:51:17;;;;;;;62.63;22.53;;;;;;;2.75;92.14;97070.72;4899830;29;20267;-73
2023/12/11 06:53:44;;;;;;;65.13;21.43;;;;;;;2.82;91.13;97105.59;4901561;29;20203;-69
2023/12/11 06:56:18;;;;;;;57.83;20.13;;;;;;;2.60;91.57;97109.28;4905943;29;20263;-72
2023/12/11 06:58:46;;;;;;;54.03;18.93;;;;;;;2.38;91.03;97061.91;4906413;29;20626;-72
2023/12/11 07:01:13;;;;;;;62.23;20.60;;;;;;;2.72;91.56;97106.56;4898149;29;20226;-73
2023/12/11 07:03:41;;;;;;;54.63;19.73;;;;;;;2.84;91.62;97111.53;4891232;29;20227;-74
2023/12/11 07:06:09;;;;;;;74.37;23.23;;;;;;;2.89;90.50;97107.16;4892201;29;20206;-73
2023/12/11 07:08:37;;;;;;;63.43;21.60;;;;;;;2.99;90.32;97092.53;4891546;29;20194;-71
2023/12/11 07:11:04;;;;;;;62.17;21.43;;;;;;;3.09;90.07;97104.31;4892058;29;20665;-76
2023/12/11 07:13:31;;;;;;;57.47;20.47;;;;;;;3.09;89.66;97100.03;4891933;29;20206;-77
2023/12/11 07:15:58;;;;;;;57.17;19.67;;;;;;;2.90;89.53;97105.47;4891344;29;20297;-74
2023/12/11 07:18:26;;;;;;;50.63;19.00;;;;;;;2.85;89.81;97097.84;4892256;29;20207;-75
2023/12/11 07:20:53;;;;;;;69.77;21.27;;;;;;;2.89;90.03;97112.28;4890758;29;20253;-73
2023/12/11 07:23:20;;;;;;;66.10;20.93;;;;;;;2.80;90.12;97109.88;4892341;29;20275;-70
2023/12/11 07:25:47;;;;;;;68.70;20.77;;;;;;;2.56;91.78;97083.78;4891500;29;20207;-72
2023/12/11 07:28:14;;;;;;;68.17;20.73;;;;;;;2.78;91.78;97103.09;4900938;29;20311;-72
2023/12/11 07:30:42;;;;;;;54.70;19.97;;;;;;;2.80;91.05;97104.75;4893215;29;20191;-74
2023/12/11 07:33:10;;;;;;;78.03;24.73;;;;;;;3.01;91.48;97093.38;4889894;29;20202;-75
2023/12/11 07:35:38;;;;;;;68.83;21.00;;;;;;;2.91;90.44;97074.75;4891648;29;20198;-75
2023/12/11 07:38:06;;;;;;;71.87;21.20;;;;;;;3.25;90.18;97096.38;4874518;29;20199;-74
2023/12/11 07:40:33;;;;;;;58.17;21.37;;;;;;;3.43;89.11;97112.28;4892360;29;20585;-75
2023/12/11 07:43:00;;;;;;;54.43;18.30;;;;;;;2.95;88.54;97084.06;4874212;29;20286;-75
2023/12/11 07:45:28;;;;;;;52.17;18.63;;;;;;;3.21;88.94;97110.06;4891772;29;20213;-77
2023/12/11 07:47:55;;;;;;;58.80;19.33;;;;;;;3.19;88.67;97121.22;4891581;29;20785;-75
2023/12/11 07:50:23;;;;;;;61.33;20.67;;;;;;;3.19;88.95;97109.25;4891165;29;20202;-74
2023/12/11 07:52:50;;;;;;;53.07;18.40;;;;;;;3.10;88.37;97111.97;4891793;29;20195;-73
2023/12/11 07:55:18;;;;;;;68.00;20.00;;;;;;;3.18;89.20;97119.50;4889268;29;20206;-73
2023/12/11 07:57:46;;;;;;;58.10;19.80;;;;;;;3.21;88.87;97120.31;4891585;29;20582;-72
2023/12/11 08:00:14;;;;;;;53.40;18.40;;;;;;;3.04;88.79;97106.09;4891099;29;20218;-75
2023/12/11 08:02:42;;;;;;;46.73;16.77;;;;;;;3.26;88.37;97123.66;4891692;29;20267;-73
2023/12/11 08:05:09;;;;;;;43.73;16.93;;;;;;;3.03;87.76;97125.72;4891312;29;20254;-74
2023/12/11 08:07:37;;;;;;;43.00;14.47;;;;;;;2.45;88.75;97089.06;4891723;29;20282;-72
2023/12/11 08:10:06;;;;;;;52.57;16.17;;;;;;;2.39;89.80;97107.84;4891082;29;20680;-73
2023/12/11 08:12:33;;;;;;;55.20;19.10;;;;;;;2.67;90.53;97140.72;4895289;29;20195;-73
2023/12/11 08:15:03;;;;;;;45.03;17.90;;;;;;;2.62;88.67;97115.22;4919608;29;20299;-74
2023/12/11 08:17:32;;;;;;;58.53;19.77;;;;;;;2.93;88.90;97128.41;4900178;29;20592;-75
2023/12/11 08:19:59;;;;;;;50.17;17.67;;;;;;;2.97;88.48;97110.47;4892295;29;20211;-74
2023/12/11 08:22:29;;;;;;;38.70;14.07;;;;;;;3.08;88.04;97116.25;4890579;29;20664;-74
2023/12/11 08:24:57;;;;;;;55.90;17.10;;;;;;;2.76;88.75;97117.59;4890875;29;20524;-74
2023/12/11 08:27:24;;;;;;;63.47;15.73;;;;;;;2.34;89.29;97044.91;4891021;29;20226;-74
2023/12/11 08:29:52;;;;;;;45.40;16.03;;;;;;;2.24;89.90;97089.34;4890242;29;20199;-75
2023/12/11 08:32:19;;;;;;;53.20;16.37;;;;;;;2.39;90.43;97066.16;4891900;29;20198;-74
2023/12/11 08:34:47;;;;;;;42.53;14.73;;;;;;;2.72;89.87;97087.84;4874341;29;20207;-76
2023/12/11 08:37:15;;;;;;;38.57;14.40;;;;;;;2.92;88.54;97111.41;4892488;29;20206;-76
2023/12/11 08:39:44;;;;;;;32.77;13.30;;;;;;;3.05;87.63;97100.94;4891881;29;20196;-76
2023/12/11 08:42:15;;;;;;;36.97;13.00;;;;;;;2.90;87.23;97073.06;4875823;29;20226;-73
2023/12/11 08:44:44;;;;;;;38.67;14.57;;;;;;;3.10;87.57;97094.06;4906771;29;20312;-77
2023/12/11 08:47:11;;;;;;;41.23;14.47;;;;;;;2.97;87.00;97068.69;4906066;29;20192;-76
2023/12/11 08:49:39;;;;;;;39.73;15.07;;;;;;;3.24;87.18;97099.78;4896036;29;20658;-74
2023/12/11 08:52:06;;;;;;;38.63;14.87;;;;;;;3.50;86.25;97093.41;4896655;29;20219;-74
2023/12/11 08:54:34;;;;;;;45.93;15.30;;;;;;;3.47;85.61;97086.63;4921244;29;20271;-72
2023/12/11 08:57:02;;;;;;;37.37;13.43;;;;;;;3.46;86.25;97096.88;4913321;29;20211;-76
2023/12/11 08:59:32;;;;;;;44.57;14.83;;;;;;;3.67;85.21;97096.53;4895562;29;20262;-76
2023/12/11 09:01:59;;;;;;;41.13;15.17;;;;;;;3.39;86.15;97091.03;4895274;29;20322;-76
2023/12/11 09:04:26;;;;;;;42.13;15.37;;;;;;;3.51;84.89;97078.00;4893803;29;20214;-73
2023/12/11 09:06:54;;;;;;;55.23;22.07;;;;;;;3.82;85.43;97085.97;4894626;29;20294;-73
2023/12/11 09:09:21;;;;;;;46.13;19.10;;;;;;;3.85;85.18;97089.31;4893816;29;20203;-72
2023/12/11 09:11:48;;;;;;;41.90;17.20;;;;;;;3.83;84.86;97088.50;4894332;29;20255;-74
2023/12/11 09:14:16;;;;;;;45.80;16.70;;;;;;;3.71;84.31;97091.28;4893500;29;20195;-74
2023/12/11 09:16:46;;;;;;;50.47;16.97;;;;;;;3.45;85.54;97082.38;4893816;29;20195;-75
2023/12/11 09:19:13;;;;;;;47.17;15.77;;;;;;;3.38;86.47;97060.34;4892827;29;20282;-76
2023/12/11 09:21:41;;;;;;;46.80;16.13;;;;;;;3.40;86.32;97063.72;4893151;29;20498;-73
2023/12/11 09:24:09;;;;;;;46.47;15.87;;;;;;;3.20;89.03;97075.13;4894492;29;20205;-73
2023/12/11 09:26:37;;;;;;;54.90;18.63;;;;;;;3.25;88.29;97059.72;4893202;29;20690;-74
2023/12/11 09:29:04;;;;;;;48.03;17.23;;;;;;;3.25;88.58;97073.34;4894879;29;20211;-73
2023/12/11 09:31:31;;;;;;;46.43;17.57;;;;;;;3.07;88.85;97060.84;4893562;29;20290;-72
2023/12/11 09:33:58;;;;;;;50.37;18.10;;;;;;;3.17;88.03;97013.75;4894160;29;20212;-73
2023/12/11 09:36:25;;;;;;;45.70;16.97;;;;;;;3.41;87.62;97048.34;4897304;29;20720;-74
2023/12/11 09:38:52;;;;;;;66.17;20.27;;;;;;;3.46;87.14;97008.16;4903111;29;20227;-73
2023/12/11 09:41:19;;;;;;;49.37;18.63;;;;;;;4.19;85.70;97063.88;4896922;29;20226;-75
2023/12/11 09:43:47;;;;;;;44.07;17.27;;;;;;;4.22;85.22;97060.44;4907139;29;20546;-74
2023/12/11 09:46:18;;;;;;;50.27;17.87;;;;;;;4.45;83.97;97059.06;4893627;29;20200;-74
2023/12/11 09:48:47;;;;;;;43.17;18.37;;;;;;;4.54;83.24;97033.22;4892626;29;20204;-73
2023/12/11 09:51:16;;;;;;;54.10;21.23;;;;;;;4.62;82.97;97003.13;4893234;29;20676;-74
2023/12/11 09:53:43;;;;;;;48.17;18.07;;;;;;;5.14;82.41;97048.06;4893005;29;20556;-73
2023/12/11 09:56:12;;;;;;;50.10;18.80;;;;;;;4.97;80.72;97039.03;4892522;29;20203;-74
2023/12/11 09:58:42;;;;;;;43.57;17.77;;;;;;;5.02;81.37;97028.69;4892586;29;20208;-72
2023/12/11 10:01:13;;;;;;;51.00;20.10;;;;;;;5.01;80.81;97021.03;4891822;29;20290;-75
2023/12/11 10:03:41;;;;;;;50.60;20.20;;;;;;;5.07;81.54;97036.28;4893117;29;20279;-73
2023/12/11 10:06:08;;;;;;;47.37;20.53;;;;;;;5.03;80.67;97037.22;4892454;29;20316;-75
2023/12/11 10:08:42;;;;;;;55.97;20.93;;;;;;;5.27;80.41;97023.78;4893583;29;20238;-74
2023/12/11 10:11:12;;;;;;;58.40;23.00;;;;;;;5.18;81.46;97024.84;4893002;29;20304;-74
2023/12/11 10:13:39;;;;;;;55.53;22.63;;;;;;;5.32;80.89;97024.50;4893152;29;20612;-74
2023/12/11 10:16:29;;;;;;;52.77;21.60;;;;;;;5.59;79.26;97028.91;4896562;29;20226;-73
2023/12/11 10:19:00;;;;;;;55.87;21.53;;;;;;;5.51;80.20;97044.53;4889767;29;20192;-75
2023/12/11 10:21:41;;;;;;;57.53;23.30;;;;;;;5.74;79.53;97020.81;4908765;29;20230;-74
2023/12/11 10:24:13;;;;;;;48.03;20.97;;;;;;;5.57;79.22;97005.00;4901149;29;20657;-74
2023/12/11 10:26:55;;;;;;;56.50;20.43;;;;;;;5.75;79.27;97025.06;4891651;29;20213;-73
2023/12/11 10:29:27;;;;;;;47.17;20.27;;;;;;;5.83;79.86;97032.56;4892741;29;20207;-75
2023/12/11 10:32:03;;;;;;;51.00;19.93;;;;;;;5.83;79.89;97024.88;4891819;29;20495;-74
2023/12/11 10:34:45;;;;;;;59.60;20.17;;;;;;;6.10;78.62;97030.09;4890621;29;20201;-74
2023/12/11 10:37:13;;;;;;;40.63;16.13;;;;;;;5.95;78.51;96975.72;4893027;29;20296;-77
2023/12/11 10:43:42;;;;;;;43.83;17.37;;;;;;;6.39;76.18;97006.94;4892529;29;20269;-74
2023/12/11 10:46:30;;;;;;;39.70;15.67;;;;;;;6.41;76.02;96997.47;4894380;29;20196;-72
2023/12/11 10:49:01;;;;;;;47.77;16.27;;;;;;;6.50;76.33;96988.63;4909967;29;20211;-76
2023/12/11 10:51:34;;;;;;;44.80;18.03;;;;;;;6.46;76.17;96946.72;4910157;29;20189;-76
2023/12/11 10:54:01;;;;;;;45.37;18.33;;;;;;;6.74;76.17;96964.69;4894431;29;20206;-78
2023/12/11 10:56:28;;;;;;;48.37;19.80;;;;;;;6.73;75.12;96945.00;4911865;29;20624;-74
2023/12/11 10:58:57;;;;;;;40.90;18.67;;;;;;;6.94;75.29;96970.06;4912157;29;20201;-76
2023/12/11 11:01:26;;;;;;;51.90;18.50;;;;;;;7.03;74.19;96969.75;4895131;29;20658;-73
2023/12/11 11:03:53;;;;;;;62.77;21.73;;;;;;;7.26;74.41;96963.81;4904762;29;20240;-70
2023/12/11 11:06:22;;;;;;;46.47;19.43;;;;;;;7.21;72.97;96963.16;4911691;29;20197;-76
2023/12/11 11:09:06;;;;;;;52.23;19.90;;;;;;;7.10;72.85;96935.19;4910985;29;20636;-73
2023/12/11 11:11:39;;;;;;;45.33;18.93;;;;;;;7.29;73.22;96958.59;4909978;29;20191;-75
2023/12/11 11:14:28;;;;;;;43.03;18.13;;;;;;;7.29;72.19;96953.44;4910009;29;20199;-77
2023/12/11 11:16:57;;;;;;;41.43;17.00;;;;;;;7.27;72.46;96953.47;4911082;29;20197;-77
2023/12/11 11:19:25;;;;;;;44.47;18.83;;;;;;;7.21;71.65;96943.38;4892790;29;20697;-77
2023/12/11 11:22:06;;;;;;;44.53;18.73;;;;;;;7.06;73.28;96943.06;4893938;29;20239;-76
2023/12/11 11:24:35;;;;;;;43.80;18.47;;;;;;;6.98;73.94;96942.47;4910240;29;20233;-73
2023/12/11 11:27:03;;;;;;;53.23;19.63;;;;;;;7.18;73.10;96938.34;4909773;29;20305;-74
2023/12/11 11:29:43;;;;;;;47.23;17.90;;;;;;;7.25;72.07;96929.50;4910059;29;20688;-74
2023/12/11 11:32:12;;;;;;;45.33;18.57;;;;;;;7.35;71.73;96932.63;4892451;29;20273;-73
2023/12/11 11:34:39;;;;;;;45.70;17.47;;;;;;;7.53;71.10;96944.00;4909793;29;20597;-71